Time;durP1;ratioP1;P1;durP2;ratioP2;P2;SDS_P1;SDS_P2;PMS_P1;PMS_P2;Temp;Humidity;BMP_temperature;BMP_pressure;BME280_temperature;BME280_humidity;BME280_pressure;Samples;Min_cycle;Max_cycle;Signal;HPM_P1;HPM_P2
2023/10/11 00:00:51;;;;;;;;;;;20.00;71.30;;;;;;4975583;28;1558;-65
2023/10/11 00:03:16;;;;;;;;;;;20.00;71.30;;;;;;5007313;28;1461;-65
2023/10/11 00:05:42;;;;;;;;;;;20.00;71.30;;;;;;4975625;28;1538;-65
2023/10/11 00:08:08;;;;;;;;;;;20.00;71.30;;;;;;5009935;28;1463;-65
2023/10/11 00:10:35;;;;;;;;;;;20.00;71.30;;;;;;5008973;28;1389;-65
2023/10/11 00:13:03;;;;;;;;;;;20.00;71.30;;;;;;5010367;28;1236;-65
2023/10/11 00:15:36;;;;;;;;;;;20.00;71.30;;;;;;5009839;28;1171;-65
2023/10/11 00:18:01;;;;;;;;;;;20.00;71.40;;;;;;5008424;28;1244;-65
2023/10/11 00:20:47;;;;;;;;;;;20.00;71.40;;;;;;4991500;28;1727;-65
2023/10/11 00:23:14;;;;;;;;;;;20.00;71.40;;;;;;5009078;28;1445;-65
2023/10/11 00:25:39;;;;;;;;;;;20.00;71.40;;;;;;5006225;28;1902;-65
2023/10/11 00:28:08;;;;;;;;;;;20.00;71.40;;;;;;5008713;28;1292;-64
2023/10/11 00:30:38;;;;;;;;;;;20.00;71.40;;;;;;5009849;28;1344;-65
2023/10/11 00:33:07;;;;;;;;;;;20.00;71.40;;;;;;5009520;28;1048;-65
2023/10/11 00:35:33;;;;;;;;;;;20.00;71.40;;;;;;5009160;28;1300;-65
2023/10/11 00:38:00;;;;;;;;;;;20.00;71.40;;;;;;5009638;28;1336;-64
2023/10/11 00:40:28;;;;;;;;;;;20.00;71.40;;;;;;5009212;28;1408;-65
2023/10/11 00:42:54;;;;;;;;;;;20.00;71.40;;;;;;5008988;28;1349;-65
2023/10/11 00:45:22;;;;;;;;;;;20.00;71.40;;;;;;5009038;28;1906;-65
2023/10/11 00:47:55;;;;;;;;;;;20.00;71.40;;;;;;4990480;28;1208;-64
2023/10/11 00:50:21;;;;;;;;;;;20.00;71.40;;;;;;5009061;28;1385;-65
2023/10/11 00:52:47;;;;;;;;;;;20.00;71.40;;;;;;4992323;28;1018;-65
2023/10/11 00:55:21;;;;;;;;;;;20.00;71.40;;;;;;5009297;28;1250;-65
2023/10/11 00:57:48;;;;;;;;;;;20.00;71.50;;;;;;5007906;28;1373;-65
2023/10/11 01:00:21;;;;;;;;;;;20.00;71.50;;;;;;5008359;28;1309;-65
2023/10/11 01:02:51;;;;;;;;;;;20.00;71.50;;;;;;5007850;28;1185;-65
2023/10/11 01:05:20;;;;;;;;;;;20.00;71.50;;;;;;4987361;28;1914;-65
2023/10/11 01:07:46;;;;;;;;;;;20.00;71.50;;;;;;4988747;28;1557;-65
2023/10/11 01:10:11;;;;;;;;;;;20.00;71.50;;;;;;5007954;28;1299;-65
2023/10/11 01:12:38;;;;;;;;;;;20.00;71.50;;;;;;5009325;28;1110;-65
2023/10/11 01:15:11;;;;;;;;;;;20.00;71.50;;;;;;4987662;28;1359;-65
2023/10/11 01:17:38;;;;;;;;;;;20.00;71.50;;;;;;5009302;28;1213;-64
2023/10/11 01:20:06;;;;;;;;;;;20.00;71.50;;;;;;4988912;28;1343;-65
2023/10/11 01:22:32;;;;;;;;;;;20.00;71.50;;;;;;5009188;28;1454;-65
2023/10/11 01:25:00;;;;;;;;;;;20.00;71.50;;;;;;5009569;28;1919;-65
2023/10/11 01:27:30;;;;;;;;;;;20.00;71.50;;;;;;5009122;28;1128;-65
2023/10/11 01:29:58;;;;;;;;;;;20.00;71.50;;;;;;5009259;28;1463;-65
2023/10/11 01:32:24;;;;;;;;;;;20.00;71.60;;;;;;5009190;28;1288;-65
2023/10/11 01:34:49;;;;;;;;;;;20.00;71.50;;;;;;4991708;28;1496;-65
2023/10/11 01:37:17;;;;;;;;;;;20.00;71.50;;;;;;5009326;28;1451;-65
2023/10/11 01:39:43;;;;;;;;;;;20.00;71.50;;;;;;4988540;28;1465;-65
2023/10/11 01:42:08;;;;;;;;;;;20.00;71.50;;;;;;4986748;28;1403;-65
2023/10/11 01:44:36;;;;;;;;;;;20.00;71.50;;;;;;5008599;28;1968;-65
2023/10/11 01:47:01;;;;;;;;;;;20.00;71.60;;;;;;5008728;28;1239;-65
2023/10/11 01:49:27;;;;;;;;;;;19.90;71.50;;;;;;5008552;28;1385;-65
2023/10/11 01:51:54;;;;;;;;;;;20.00;71.60;;;;;;5008660;28;1383;-65
2023/10/11 01:54:22;;;;;;;;;;;20.00;71.60;;;;;;5008892;28;1361;-65
2023/10/11 01:56:48;;;;;;;;;;;20.00;71.60;;;;;;4989226;28;1229;-65
2023/10/11 01:59:15;;;;;;;;;;;20.00;71.60;;;;;;5005705;28;1363;-65
2023/10/11 02:01:41;;;;;;;;;;;20.00;71.60;;;;;;5009049;28;1397;-65
2023/10/11 02:04:20;;;;;;;;;;;20.00;71.60;;;;;;5010977;28;1965;-65
2023/10/11 02:06:47;;;;;;;;;;;20.00;71.60;;;;;;5009124;28;2021;-64
2023/10/11 02:09:13;;;;;;;;;;;20.00;71.60;;;;;;4993673;28;1314;-64
2023/10/11 02:11:41;;;;;;;;;;;20.00;71.60;;;;;;4990805;28;1926;-65
2023/10/11 02:14:07;;;;;;;;;;;20.00;71.60;;;;;;5010163;28;1374;-65
2023/10/11 02:16:32;;;;;;;;;;;20.00;72.40;;;;;;4993221;28;1415;-65
2023/10/11 02:19:00;;;;;;;;;;;20.00;71.60;;;;;;5012581;28;1421;-64
2023/10/11 02:21:29;;;;;;;;;;;20.00;71.60;;;;;;4994883;28;1310;-64
2023/10/11 02:23:56;;;;;;;;;;;20.00;71.70;;;;;;4989797;28;1957;-64
2023/10/11 02:26:29;;;;;;;;;;;20.00;71.70;;;;;;5011430;28;1279;-64
2023/10/11 02:28:54;;;;;;;;;;;19.90;71.60;;;;;;5011632;28;1402;-64
2023/10/11 02:31:20;;;;;;;;;;;20.00;71.60;;;;;;5011160;28;1295;-64
2023/10/11 02:33:46;;;;;;;;;;;20.00;71.70;;;;;;5011440;28;1371;-64
2023/10/11 02:36:18;;;;;;;;;;;20.00;71.60;;;;;;4990443;28;1526;-65
2023/10/11 02:38:47;;;;;;;;;;;20.00;71.70;;;;;;5011121;28;1307;-65
2023/10/11 02:41:13;;;;;;;;;;;20.00;71.70;;;;;;4992975;28;1411;-65
2023/10/11 02:43:48;;;;;;;;;;;20.00;71.70;;;;;;4977796;28;1902;-65
2023/10/11 02:46:14;;;;;;;;;;;20.00;71.70;;;;;;4987228;28;1462;-65
2023/10/11 02:48:45;;;;;;;;;;;20.00;71.70;;;;;;4993441;28;1293;-65
2023/10/11 02:51:17;;;;;;;;;;;20.00;71.70;;;;;;5010506;28;1394;-65
2023/10/11 02:53:46;;;;;;;;;;;20.00;71.70;;;;;;4992457;28;1677;-65
2023/10/11 02:56:11;;;;;;;;;;;20.00;71.70;;;;;;5009769;28;1332;-65
2023/10/11 02:58:40;;;;;;;;;;;19.90;71.60;;;;;;4989582;28;1502;-65
2023/10/11 03:01:14;;;;;;;;;;;20.00;71.70;;;;;;4988944;28;1322;-64
2023/10/11 03:03:42;;;;;;;;;;;20.00;71.70;;;;;;4989908;28;1999;-65
2023/10/11 03:06:08;;;;;;;;;;;20.00;71.70;;;;;;5011819;28;1346;-65
2023/10/11 03:08:34;;;;;;;;;;;19.90;71.70;;;;;;5010941;28;1591;-65
2023/10/11 03:11:04;;;;;;;;;;;19.90;71.70;;;;;;5011221;28;1541;-65
2023/10/11 03:13:30;;;;;;;;;;;19.90;71.70;;;;;;4991380;28;1375;-65
2023/10/11 03:15:59;;;;;;;;;;;20.00;71.80;;;;;;4991238;28;1464;-65
2023/10/11 03:18:32;;;;;;;;;;;20.00;71.70;;;;;;4990818;28;1493;-65
2023/10/11 03:21:07;;;;;;;;;;;20.00;71.80;;;;;;4993403;28;1391;-65
2023/10/11 03:23:46;;;;;;;;;;;19.90;71.70;;;;;;5009951;28;1902;-65
2023/10/11 03:26:31;;;;;;;;;;;20.00;71.80;;;;;;5010676;28;1415;-65
2023/10/11 03:29:03;;;;;;;;;;;20.00;71.80;;;;;;5011243;28;1402;-65
2023/10/11 03:31:29;;;;;;;;;;;19.90;71.70;;;;;;5010725;28;1358;-65
2023/10/11 03:33:58;;;;;;;;;;;20.00;71.80;;;;;;4986390;28;1285;-65
2023/10/11 03:36:43;;;;;;;;;;;20.00;71.80;;;;;;4991809;28;1591;-65
2023/10/11 03:39:09;;;;;;;;;;;20.00;71.80;;;;;;5010847;28;1390;-65
2023/10/11 03:41:36;;;;;;;;;;;20.00;71.80;;;;;;4994843;28;1624;-65
2023/10/11 03:44:09;;;;;;;;;;;20.00;71.80;;;;;;5011187;28;1937;-65
2023/10/11 03:46:35;;;;;;;;;;;20.00;71.80;;;;;;5011148;28;1668;-65
2023/10/11 03:51:43;;;;;;;;;;;20.00;71.80;;;;;;5010114;28;1303;-65
2023/10/11 03:54:11;;;;;;;;;;;20.00;71.80;;;;;;4995884;28;1615;-66
2023/10/11 03:56:45;;;;;;;;;;;20.00;71.80;;;;;;5010966;28;1134;-65
2023/10/11 03:59:12;;;;;;;;;;;20.00;71.90;;;;;;5010274;28;1402;-65
2023/10/11 04:01:37;;;;;;;;;;;20.00;71.90;;;;;;5008468;28;1212;-65
2023/10/11 04:04:05;;;;;;;;;;;20.00;71.90;;;;;;5010838;28;1962;-65
2023/10/11 04:06:33;;;;;;;;;;;20.00;71.90;;;;;;5008948;28;1387;-65
2023/10/11 04:09:02;;;;;;;;;;;20.00;71.90;;;;;;4990199;28;1434;-65
2023/10/11 04:11:37;;;;;;;;;;;20.00;71.90;;;;;;4989702;28;1188;-65
2023/10/11 04:14:03;;;;;;;;;;;20.00;71.90;;;;;;4992399;28;1240;-65
2023/10/11 04:16:28;;;;;;;;;;;20.00;71.80;;;;;;5010536;28;1257;-65
2023/10/11 04:18:54;;;;;;;;;;;20.00;71.90;;;;;;5010443;28;1428;-65
2023/10/11 04:21:39;;;;;;;;;;;20.00;71.90;;;;;;5008919;28;1400;-65
2023/10/11 04:24:06;;;;;;;;;;;19.90;71.80;;;;;;5009161;28;1972;-65
2023/10/11 04:26:36;;;;;;;;;;;20.00;71.90;;;;;;5009307;28;1354;-65
2023/10/11 04:29:17;;;;;;;;;;;20.00;71.90;;;;;;5010295;28;1355;-65
2023/10/11 04:31:55;;;;;;;;;;;20.00;72.00;;;;;;5010129;28;1232;-65
2023/10/11 04:34:23;;;;;;;;;;;20.00;71.90;;;;;;5009416;28;1252;-65
2023/10/11 04:36:55;;;;;;;;;;;19.90;71.90;;;;;;4991215;28;1330;-66
2023/10/11 04:39:27;;;;;;;;;;;20.00;71.90;;;;;;4971629;28;1395;-65
2023/10/11 04:41:57;;;;;;;;;;;20.00;72.00;;;;;;5009869;28;1285;-65
2023/10/11 04:44:32;;;;;;;;;;;20.00;72.00;;;;;;5008303;28;1890;-65
2023/10/11 04:46:58;;;;;;;;;;;20.00;71.90;;;;;;4989703;28;931;-65
2023/10/11 04:49:24;;;;;;;;;;;20.00;72.00;;;;;;5007381;28;1297;-65
2023/10/11 04:51:51;;;;;;;;;;;20.00;72.00;;;;;;4991976;28;1214;-65
2023/10/11 04:54:18;;;;;;;;;;;20.00;72.70;;;;;;5007997;28;1397;-65
2023/10/11 04:59:11;;;;;;;;;;;20.00;72.00;;;;;;5008370;28;1473;-66
2023/10/11 05:04:26;;;;;;;;;;;20.00;72.00;;;;;;5009096;28;1906;-66
2023/10/11 05:06:53;;;;;;;;;;;20.00;72.00;;;;;;5008463;28;1511;-65
2023/10/11 05:11:46;;;;;;;;;;;20.00;72.00;;;;;;5008878;28;1120;-66
2023/10/11 05:14:28;;;;;;;;;;;20.00;72.00;;;;;;5008071;28;1441;-66
2023/10/11 05:17:16;;;;;;;;;;;20.00;72.00;;;;;;5009577;28;1455;-66
2023/10/11 05:19:46;;;;;;;;;;;20.00;72.00;;;;;;4988730;28;1311;-65
2023/10/11 05:23:05;;;;;;;;;;;20.00;72.10;;;;;;4991972;28;1466;-65
2023/10/11 05:32:41;;;;;;;;;;;20.00;72.10;;;;;;4992420;28;1235;-65
2023/10/11 05:51:27;;;;;;;;;;;20.00;72.10;;;;;;4982119;28;1234;-66
2023/10/11 05:53:53;;;;;;;;;;;20.00;72.10;;;;;;5011213;28;1852;-66
2023/10/11 05:56:22;;;;;;;;;;;20.00;72.10;;;;;;4991239;28;1923;-68
2023/10/11 05:58:51;;;;;;;;;;;20.00;72.10;;;;;;4974641;28;1506;-68
2023/10/11 06:01:19;;;;;;;;;;;20.00;72.20;;;;;;4993625;28;1377;-68
2023/10/11 06:03:44;;;;;;;;;;;20.00;72.20;;;;;;4993001;28;1997;-67
2023/10/11 06:06:57;;;;;;;;;;;20.00;72.20;;;;;;4995191;28;1451;-68
2023/10/11 06:08:59;;;;;;;;;;;20.00;72.20;;;;;;4998548;28;1505;-68
2023/10/11 06:11:36;;;;;;;;;;;20.00;72.30;;;;;;4992102;28;1966;-69
2023/10/11 06:14:06;;;;;;;;;;;20.00;72.20;;;;;;5011189;28;1253;-68
2023/10/11 06:16:39;;;;;;;;;;;20.00;72.20;;;;;;5012549;28;1296;-67
2023/10/11 06:19:17;;;;;;;;;;;19.90;72.20;;;;;;5010094;28;1540;-68
2023/10/11 06:22:09;;;;;;;;;;;20.00;72.20;;;;;;4997402;28;1436;-67
2023/10/11 06:24:36;;;;;;;;;;;20.00;72.20;;;;;;5015227;28;1902;-67
2023/10/11 06:29:45;;;;;;;;;;;20.00;72.20;;;;;;5012038;28;1573;-67
2023/10/11 06:32:11;;;;;;;;;;;20.00;72.20;;;;;;4984882;28;1368;-66
2023/10/11 06:34:39;;;;;;;;;;;20.00;72.20;;;;;;5009421;28;1541;-66
2023/10/11 06:37:08;;;;;;;;;;;20.00;72.20;;;;;;5004558;28;1264;-66
2023/10/11 06:39:34;;;;;;;;;;;20.00;72.20;;;;;;4991400;28;2004;-66
2023/10/11 06:42:13;;;;;;;;;;;19.90;72.20;;;;;;4992948;28;1412;-66
2023/10/11 06:44:39;;;;;;;;;;;19.90;72.20;;;;;;5008691;28;1910;-68
2023/10/11 06:47:04;;;;;;;;;;;19.90;72.10;;;;;;5010587;28;1671;-68
2023/10/11 06:49:32;;;;;;;;;;;19.90;72.10;;;;;;4995931;28;1856;-69
2023/10/11 06:52:01;;;;;;;;;;;19.90;72.20;;;;;;5011944;28;1127;-67
2023/10/11 06:54:32;;;;;;;;;;;19.90;72.20;;;;;;4993205;28;1334;-67
2023/10/11 06:56:57;;;;;;;;;;;20.00;72.20;;;;;;4995096;28;1548;-67
2023/10/11 06:59:23;;;;;;;;;;;19.90;72.20;;;;;;4995758;28;1656;-70
2023/10/11 07:01:49;;;;;;;;;;;19.90;72.20;;;;;;4996584;28;1498;-67
2023/10/11 07:04:18;;;;;;;;;;;19.90;72.20;;;;;;5012457;28;1906;-67
2023/10/11 07:06:46;;;;;;;;;;;19.90;72.20;;;;;;4995426;28;1384;-69
2023/10/11 07:09:20;;;;;;;;;;;19.90;72.20;;;;;;5013975;28;1450;-69
2023/10/11 07:12:28;;;;;;;;;;;19.90;72.20;;;;;;4995273;28;1426;-66
2023/10/11 07:14:41;;;;;;;;;;;19.90;72.20;;;;;;4998197;28;1186;-67
2023/10/11 07:17:12;;;;;;;;;;;19.90;72.20;;;;;;5011601;28;1458;-67
2023/10/11 07:19:38;;;;;;;;;;;19.90;72.20;;;;;;4994440;28;1435;-68
2023/10/11 07:22:04;;;;;;;;;;;20.00;72.30;;;;;;4990606;28;1245;-69
2023/10/11 07:26:56;;;;;;;;;;;19.90;72.20;;;;;;4991998;28;1482;-67
2023/10/11 07:29:22;;;;;;;;;;;20.00;72.20;;;;;;5011462;28;1401;-67
2023/10/11 07:31:51;;;;;;;;;;;19.90;72.20;;;;;;4993128;28;1507;-67
2023/10/11 07:34:18;;;;;;;;;;;19.90;72.20;;;;;;5010678;28;1465;-67
2023/10/11 07:36:44;;;;;;;;;;;20.00;72.20;;;;;;4994477;28;1315;-67
2023/10/11 07:42:00;;;;;;;;;;;19.90;72.20;;;;;;5010124;28;1236;-68
2023/10/11 07:44:27;;;;;;;;;;;19.90;72.20;;;;;;5011217;28;1902;-69
2023/10/11 07:46:55;;;;;;;;;;;19.90;72.20;;;;;;4987975;28;1250;-69
2023/10/11 07:49:23;;;;;;;;;;;19.90;72.20;;;;;;5010097;28;1401;-68
2023/10/11 07:51:49;;;;;;;;;;;19.90;72.20;;;;;;4977379;28;1318;-69
2023/10/11 07:54:20;;;;;;;;;;;19.90;72.20;;;;;;5000405;28;1569;-69
2023/10/11 07:56:52;;;;;;;;;;;19.90;72.20;;;;;;4993388;28;1085;-69
2023/10/11 07:59:21;;;;;;;;;;;19.90;72.20;;;;;;5009441;28;1472;-69
2023/10/11 08:01:47;;;;;;;;;;;19.90;72.20;;;;;;4994036;28;1305;-68
2023/10/11 08:04:16;;;;;;;;;;;20.00;72.20;;;;;;5012988;28;1962;-68
2023/10/11 08:06:41;;;;;;;;;;;19.90;72.20;;;;;;4990743;28;1396;-68
2023/10/11 08:09:09;;;;;;;;;;;20.00;72.30;;;;;;5010523;28;1290;-68
2023/10/11 08:11:44;;;;;;;;;;;19.90;72.20;;;;;;5009342;28;1969;-69
2023/10/11 08:14:21;;;;;;;;;;;19.90;72.20;;;;;;4992920;28;1246;-67
2023/10/11 08:16:48;;;;;;;;;;;19.90;72.20;;;;;;5009841;28;1142;-69
2023/10/11 08:19:13;;;;;;;;;;;19.90;72.20;;;;;;5010203;28;1284;-68
2023/10/11 08:21:39;;;;;;;;;;;19.90;72.20;;;;;;5009533;28;1339;-67
2023/10/11 08:24:15;;;;;;;;;;;19.90;72.20;;;;;;5010496;28;1959;-69
2023/10/11 08:26:45;;;;;;;;;;;19.90;72.20;;;;;;5007242;28;1302;-68
2023/10/11 08:29:27;;;;;;;;;;;19.90;72.20;;;;;;4992607;28;1356;-68
2023/10/11 08:31:56;;;;;;;;;;;19.90;72.30;;;;;;4992048;28;1484;-68
2023/10/11 08:34:21;;;;;;;;;;;19.90;72.30;;;;;;5008565;28;1452;-68
2023/10/11 08:36:48;;;;;;;;;;;19.90;72.20;;;;;;4991170;28;1667;-68
2023/10/11 08:39:14;;;;;;;;;;;19.90;72.20;;;;;;5010179;28;1296;-67
2023/10/11 08:41:43;;;;;;;;;;;19.90;72.20;;;;;;5010889;28;1438;-67
2023/10/11 08:44:15;;;;;;;;;;;19.90;72.20;;;;;;5009848;28;1902;-68
2023/10/11 08:46:45;;;;;;;;;;;19.90;72.20;;;;;;4991460;28;1261;-67
2023/10/11 08:49:11;;;;;;;;;;;19.90;72.20;;;;;;5008917;28;1310;-67
2023/10/11 08:51:40;;;;;;;;;;;19.90;72.20;;;;;;4990678;28;1634;-68
2023/10/11 08:54:11;;;;;;;;;;;19.90;72.20;;;;;;4991207;28;997;-67
2023/10/11 08:56:39;;;;;;;;;;;19.90;72.20;;;;;;4988364;28;1677;-67
2023/10/11 08:59:06;;;;;;;;;;;19.90;72.20;;;;;;4983580;28;1303;-68
2023/10/11 09:01:36;;;;;;;;;;;19.90;72.20;;;;;;5008705;28;1126;-68
2023/10/11 09:04:04;;;;;;;;;;;19.90;72.20;;;;;;4991225;28;1996;-66
2023/10/11 09:06:31;;;;;;;;;;;19.90;72.20;;;;;;5010541;28;1918;-67
2023/10/11 09:09:00;;;;;;;;;;;19.90;72.20;;;;;;5009932;28;1271;-67
2023/10/11 09:11:35;;;;;;;;;;;19.90;72.30;;;;;;5010828;28;987;-67
2023/10/11 09:14:13;;;;;;;;;;;19.90;72.20;;;;;;5012557;28;1563;-66
2023/10/11 09:16:44;;;;;;;;;;;19.90;72.30;;;;;;5013080;28;2063;-67
2023/10/11 09:19:10;;;;;;;;;;;19.90;72.20;;;;;;5015454;28;1363;-67
2023/10/11 09:21:36;;;;;;;;;;;19.90;72.30;;;;;;5015364;28;1675;-67
2023/10/11 09:24:03;;;;;;;;;;;19.90;72.20;;;;;;5016318;28;1902;-67
2023/10/11 09:26:35;;;;;;;;;;;19.90;72.30;;;;;;5013184;28;1384;-67
2023/10/11 09:29:05;;;;;;;;;;;20.00;72.30;;;;;;5014489;28;1379;-66
2023/10/11 09:31:35;;;;;;;;;;;19.90;72.20;;;;;;4996018;28;1433;-67
2023/10/11 09:34:02;;;;;;;;;;;19.90;72.30;;;;;;5014448;28;1385;-67
2023/10/11 09:36:28;;;;;;;;;;;20.00;72.30;;;;;;5013008;28;1716;-66
2023/10/11 09:38:57;;;;;;;;;;;19.90;72.30;;;;;;5013841;28;1543;-67
2023/10/11 09:41:24;;;;;;;;;;;19.90;72.30;;;;;;4992247;28;1245;-66
2023/10/11 09:43:49;;;;;;;;;;;19.90;72.30;;;;;;5011906;28;1929;-68
2023/10/11 09:46:17;;;;;;;;;;;19.90;72.30;;;;;;5013546;28;1385;-68
2023/10/11 09:48:43;;;;;;;;;;;20.00;72.30;;;;;;5013274;28;1533;-68
2023/10/11 09:51:08;;;;;;;;;;;19.90;72.30;;;;;;4993939;28;1073;-70
2023/10/11 09:53:41;;;;;;;;;;;19.90;72.30;;;;;;4996000;28;1533;-67
2023/10/11 09:56:17;;;;;;;;;;;19.90;72.30;;;;;;5015090;28;1242;-66
2023/10/11 09:58:49;;;;;;;;;;;19.90;72.30;;;;;;4988852;28;1976;-66
2023/10/11 10:01:20;;;;;;;;;;;19.90;72.30;;;;;;4993022;28;952;-70
2023/10/11 10:03:47;;;;;;;;;;;19.90;72.30;;;;;;4986877;28;1961;-70
2023/10/11 10:06:19;;;;;;;;;;;20.00;72.30;;;;;;5011796;28;1232;-69
2023/10/11 10:09:03;;;;;;;;;;;20.00;72.30;;;;;;5011119;28;1421;-71
2023/10/11 10:16:58;;;;;;;;;;;19.90;72.30;;;;;;5384219;23;2338;-68
2023/10/11 10:19:24;;;;;;;;;;;19.90;72.30;;;;;;5018853;28;1827;-67
2023/10/11 10:22:09;;;;;;;;;;;19.90;72.40;;;;;;5017521;28;1549;-69
2023/10/11 10:24:34;;;;;;;;;;;19.90;72.30;;;;;;5019748;28;1976;-66
2023/10/11 10:27:12;;;;;;;;;;;19.90;72.30;;;;;;5004725;28;1542;-69
2023/10/11 10:29:53;;;;;;;;;;;20.00;72.40;;;;;;5006009;28;1954;-68
2023/10/11 10:32:18;;;;;;;;;;;19.90;72.30;;;;;;5013345;28;1224;-68
2023/10/11 10:34:44;;;;;;;;;;;19.90;72.40;;;;;;5000415;28;1350;-68
2023/10/11 10:37:16;;;;;;;;;;;19.90;72.30;;;;;;5000909;28;1453;-68
2023/10/11 10:40:07;;;;;;;;;;;19.90;72.30;;;;;;5000632;28;1642;-68
2023/10/11 10:42:35;;;;;;;;;;;20.00;72.40;;;;;;5003606;28;1214;-69
2023/10/11 10:45:00;;;;;;;;;;;19.90;72.30;;;;;;5015131;28;1967;-70
2023/10/11 10:47:28;;;;;;;;;;;19.90;72.40;;;;;;5002443;28;1242;-68
2023/10/11 10:49:55;;;;;;;;;;;20.00;72.40;;;;;;5015125;28;1358;-68
2023/10/11 10:52:23;;;;;;;;;;;19.90;72.30;;;;;;5000843;28;1373;-67
2023/10/11 10:55:01;;;;;;;;;;;19.90;72.30;;;;;;5017365;28;1196;-68
2023/10/11 10:57:33;;;;;;;;;;;19.90;72.30;;;;;;5000345;28;1124;-69
2023/10/11 11:00:05;;;;;;;;;;;20.00;72.40;;;;;;5004458;28;1375;-68
2023/10/11 11:02:36;;;;;;;;;;;20.00;72.40;;;;;;5004750;28;1301;-69
2023/10/11 11:05:04;;;;;;;;;;;20.00;72.40;;;;;;5014374;28;1969;-69
2023/10/11 11:07:33;;;;;;;;;;;19.90;72.30;;;;;;5001856;28;1343;-69
2023/10/11 11:09:58;;;;;;;;;;;20.00;72.40;;;;;;5000756;28;1331;-69
2023/10/11 11:12:27;;;;;;;;;;;20.00;72.30;;;;;;5001041;28;1312;-66
2023/10/11 11:14:56;;;;;;;;;;;19.90;72.30;;;;;;5002511;28;1347;-69
2023/10/11 11:17:26;;;;;;;;;;;19.90;72.30;;;;;;4997395;28;1268;-69
2023/10/11 11:22:46;;;;;;;;;;;20.00;72.40;;;;;;5001339;28;1456;-69
2023/10/11 11:25:34;;;;;;;;;;;19.90;72.30;;;;;;5011456;28;1910;-69
2023/10/11 11:28:04;;;;;;;;;;;19.90;72.30;;;;;;5018263;28;1392;-68
2023/10/11 11:30:43;;;;;;;;;;;19.90;72.30;;;;;;5016827;28;970;-69
2023/10/11 11:33:19;;;;;;;;;;;19.90;72.30;;;;;;4998685;28;929;-67
2023/10/11 11:35:50;;;;;;;;;;;19.90;72.30;;;;;;5015074;28;1256;-69
2023/10/11 11:38:22;;;;;;;;;;;19.90;72.40;;;;;;5013869;28;1258;-69
2023/10/11 11:40:51;;;;;;;;;;;20.00;72.40;;;;;;5000161;28;975;-69
2023/10/11 11:43:24;;;;;;;;;;;19.90;72.30;;;;;;5015322;28;1503;-66
2023/10/11 11:46:01;;;;;;;;;;;20.00;72.40;;;;;;5014464;28;1906;-67
2023/10/11 11:48:27;;;;;;;;;;;19.90;72.30;;;;;;4997191;28;2104;-68
2023/10/11 11:50:56;;;;;;;;;;;19.90;72.30;;;;;;5000096;28;1477;-66
2023/10/11 11:53:22;;;;;;;;;;;20.00;72.40;;;;;;4999856;28;1333;-68
2023/10/11 11:55:47;;;;;;;;;;;19.90;72.30;;;;;;5001044;28;1532;-66
2023/10/11 11:58:16;;;;;;;;;;;19.90;72.30;;;;;;5002714;28;1391;-68
2023/10/11 12:00:45;;;;;;;;;;;20.00;72.40;;;;;;5008052;28;1382;-68
2023/10/11 12:03:11;;;;;;;;;;;20.00;72.40;;;;;;5001650;28;1294;-66
2023/10/11 12:05:42;;;;;;;;;;;20.00;72.40;;;;;;5013370;28;1947;-66
2023/10/11 12:08:09;;;;;;;;;;;20.00;72.40;;;;;;5018775;28;1229;-67
2023/10/11 12:10:37;;;;;;;;;;;19.90;72.30;;;;;;5002889;28;1254;-67
2023/10/11 12:13:05;;;;;;;;;;;20.00;72.40;;;;;;5003107;28;1318;-68
2023/10/11 12:15:39;;;;;;;;;;;19.90;72.30;;;;;;4999602;28;1366;-68
2023/10/11 12:18:05;;;;;;;;;;;19.90;73.00;;;;;;5016183;28;1346;-67
2023/10/11 12:20:34;;;;;;;;;;;20.00;72.40;;;;;;5016623;28;1535;-68
2023/10/11 12:23:07;;;;;;;;;;;19.90;72.30;;;;;;4999385;28;1125;-68
2023/10/11 12:25:36;;;;;;;;;;;19.90;72.30;;;;;;4997721;28;1894;-67
2023/10/11 12:28:04;;;;;;;;;;;20.00;72.40;;;;;;5013843;28;1507;-68
2023/10/11 12:30:33;;;;;;;;;;;19.90;72.30;;;;;;5001839;28;1344;-69
2023/10/11 12:32:59;;;;;;;;;;;19.90;72.30;;;;;;5000236;28;1504;-67
2023/10/11 12:35:28;;;;;;;;;;;19.90;72.30;;;;;;5002293;28;1411;-67
2023/10/11 12:38:00;;;;;;;;;;;19.90;72.40;;;;;;5002065;28;1192;-66
2023/10/11 12:40:28;;;;;;;;;;;19.90;72.30;;;;;;5002331;28;1336;-67
2023/10/11 12:42:57;;;;;;;;;;;20.00;72.40;;;;;;5008605;28;1530;-68
2023/10/11 12:45:22;;;;;;;;;;;19.90;72.30;;;;;;4999334;28;1959;-68
2023/10/11 12:47:48;;;;;;;;;;;20.00;72.40;;;;;;5002359;28;1396;-66
2023/10/11 12:50:14;;;;;;;;;;;20.00;72.40;;;;;;4999028;28;1316;-67
2023/10/11 12:52:40;;;;;;;;;;;20.00;72.40;;;;;;5002387;28;1304;-67
2023/10/11 12:55:07;;;;;;;;;;;19.90;72.30;;;;;;5001377;28;1393;-67
2023/10/11 12:57:32;;;;;;;;;;;19.90;72.30;;;;;;5002056;28;1354;-67
2023/10/11 12:59:58;;;;;;;;;;;20.00;72.40;;;;;;5016746;28;1582;-67
2023/10/11 13:02:33;;;;;;;;;;;19.90;72.30;;;;;;5018711;28;1687;-67
2023/10/11 13:04:59;;;;;;;;;;;19.90;72.30;;;;;;4999907;28;1960;-66
2023/10/11 13:07:26;;;;;;;;;;;19.90;72.30;;;;;;5001680;28;1320;-66
2023/10/11 13:09:54;;;;;;;;;;;19.90;72.40;;;;;;5001182;28;1121;-66
2023/10/11 13:12:19;;;;;;;;;;;19.90;72.40;;;;;;5000612;28;1256;-65
2023/10/11 13:14:45;;;;;;;;;;;20.00;72.40;;;;;;4998985;28;1240;-67
2023/10/11 13:17:15;;;;;;;;;;;20.00;72.40;;;;;;5014192;28;1263;-67
2023/10/11 13:19:46;;;;;;;;;;;20.00;72.40;;;;;;5013441;28;1340;-67
2023/10/11 13:22:12;;;;;;;;;;;19.90;72.30;;;;;;5004978;28;1738;-66
2023/10/11 13:24:38;;;;;;;;;;;20.00;72.40;;;;;;5012118;28;1914;-68
2023/10/11 13:27:04;;;;;;;;;;;19.90;72.40;;;;;;5000164;28;1284;-67
2023/10/11 13:29:29;;;;;;;;;;;19.90;72.40;;;;;;5012438;28;1476;-67
2023/10/11 13:31:55;;;;;;;;;;;19.90;72.40;;;;;;4998139;28;1294;-67
2023/10/11 13:34:21;;;;;;;;;;;19.90;72.40;;;;;;5000044;28;1278;-67
2023/10/11 13:36:47;;;;;;;;;;;20.00;72.40;;;;;;4997818;28;1503;-67
2023/10/11 13:39:28;;;;;;;;;;;19.90;72.40;;;;;;5014865;28;1471;-67
2023/10/11 13:42:09;;;;;;;;;;;19.90;72.40;;;;;;4995159;28;1305;-67
2023/10/11 13:44:37;;;;;;;;;;;19.90;72.40;;;;;;4996869;28;2006;-67
2023/10/11 13:47:03;;;;;;;;;;;19.90;72.40;;;;;;5014154;28;1327;-67
2023/10/11 13:49:32;;;;;;;;;;;19.90;72.40;;;;;;5014192;28;978;-66
2023/10/11 13:52:04;;;;;;;;;;;19.90;72.40;;;;;;4996699;28;1262;-67
2023/10/11 13:54:36;;;;;;;;;;;19.90;72.40;;;;;;4998653;28;1413;-67
2023/10/11 13:57:06;;;;;;;;;;;19.90;72.40;;;;;;4983591;28;1346;-66
2023/10/11 13:59:36;;;;;;;;;;;20.00;72.50;;;;;;4998701;28;1378;-66
2023/10/11 14:04:51;;;;;;;;;;;19.90;72.40;;;;;;5001754;28;1914;-67
2023/10/11 14:07:27;;;;;;;;;;;19.90;72.40;;;;;;5019957;28;1460;-66
2023/10/11 14:09:57;;;;;;;;;;;19.90;72.40;;;;;;5002850;28;1207;-67
2023/10/11 14:12:35;;;;;;;;;;;19.90;72.40;;;;;;5001078;28;1386;-67
2023/10/11 14:15:00;;;;;;;;;;;19.90;72.40;;;;;;5001592;28;1259;-66
2023/10/11 14:17:26;;;;;;;;;;;19.90;72.40;;;;;;5018748;28;1456;-67
2023/10/11 14:19:52;;;;;;;;;;;20.00;72.50;;;;;;5000776;28;1270;-67
2023/10/11 14:22:18;;;;;;;;;;;19.90;72.40;;;;;;5000080;28;1149;-66
2023/10/11 14:24:43;;;;;;;;;;;19.90;72.40;;;;;;5001504;28;1953;-67
2023/10/11 14:27:09;;;;;;;;;;;19.90;72.40;;;;;;5005345;28;1371;-67
2023/10/11 14:29:37;;;;;;;;;;;19.90;72.40;;;;;;5002146;28;1348;-67
2023/10/11 14:32:02;;;;;;;;;;;19.90;72.50;;;;;;5000868;28;1085;-66
2023/10/11 14:34:30;;;;;;;;;;;19.90;72.40;;;;;;5000177;28;1481;-67
2023/10/11 14:36:55;;;;;;;;;;;19.90;72.40;;;;;;5000795;28;2246;-67
2023/10/11 14:39:22;;;;;;;;;;;19.90;72.40;;;;;;5006430;28;1245;-67
2023/10/11 14:41:51;;;;;;;;;;;19.90;72.50;;;;;;5017183;28;1304;-67
2023/10/11 14:44:17;;;;;;;;;;;19.90;72.40;;;;;;5016684;28;1906;-67
2023/10/11 14:46:47;;;;;;;;;;;19.90;72.40;;;;;;5005130;28;1353;-68
2023/10/11 14:49:21;;;;;;;;;;;20.00;72.50;;;;;;5004822;28;1397;-67
2023/10/11 14:51:47;;;;;;;;;;;19.90;72.40;;;;;;5001148;28;1213;-67
2023/10/11 14:54:13;;;;;;;;;;;19.90;72.50;;;;;;5001596;28;1434;-67
2023/10/11 14:56:39;;;;;;;;;;;19.90;72.50;;;;;;5016119;28;1294;-67
2023/10/11 14:59:04;;;;;;;;;;;19.90;72.40;;;;;;5000932;28;1424;-67
2023/10/11 15:01:33;;;;;;;;;;;19.90;72.50;;;;;;5001253;28;1259;-68
2023/10/11 15:04:09;;;;;;;;;;;19.90;72.40;;;;;;5002037;28;1902;-67
2023/10/11 15:06:35;;;;;;;;;;;20.00;72.50;;;;;;5003635;28;1260;-66
2023/10/11 15:09:01;;;;;;;;;;;19.90;72.50;;;;;;5006252;28;1247;-67
2023/10/11 15:11:29;;;;;;;;;;;19.90;72.50;;;;;;5002480;28;1305;-67
2023/10/11 15:13:54;;;;;;;;;;;19.90;72.50;;;;;;4998890;28;1429;-66
2023/10/11 15:16:20;;;;;;;;;;;19.90;72.50;;;;;;4999629;28;1359;-67
2023/10/11 15:18:45;;;;;;;;;;;19.90;72.50;;;;;;5002076;28;1127;-67
2023/10/11 15:21:15;;;;;;;;;;;19.90;72.50;;;;;;5017036;28;1317;-67
2023/10/11 15:23:41;;;;;;;;;;;19.90;72.50;;;;;;5002619;28;1947;-67
2023/10/11 15:26:07;;;;;;;;;;;20.00;72.50;;;;;;5002615;28;1882;-69
2023/10/11 15:28:32;;;;;;;;;;;19.90;72.50;;;;;;4999300;28;1382;-67
2023/10/11 15:31:00;;;;;;;;;;;20.00;72.60;;;;;;5001717;28;1313;-69
2023/10/11 15:33:25;;;;;;;;;;;19.90;72.50;;;;;;5017529;28;1342;-69
2023/10/11 15:35:52;;;;;;;;;;;19.90;72.50;;;;;;4993387;28;1407;-69